Time;durP1;ratioP1;P1;durP2;ratioP2;P2;SDS_P1;SDS_P2;PMS_P1;PMS_P2;Temp;Humidity;BMP_temperature;BMP_pressure;BME280_temperature;BME280_humidity;BME280_pressure;Samples;Min_cycle;Max_cycle;Signal;HPM_P1;HPM_P2
2021/09/18 00:01:48;;;;;;;22.40;13.73;;;12.70;99.90;;;;;;4391072;28;658776;-70
2021/09/18 00:04:36;;;;;;;21.83;14.37;;;12.70;99.90;;;;;;4414250;28;658890;-70
2021/09/18 00:07:24;;;;;;;22.70;13.70;;;12.70;99.90;;;;;;4391964;28;659902;-70
2021/09/18 00:10:12;;;;;;;26.00;14.73;;;12.60;99.90;;;;;;4398448;28;658897;-70
2021/09/18 00:13:00;;;;;;;21.88;14.05;;;12.60;99.90;;;;;;4415257;28;659260;-70
2021/09/18 00:15:49;;;;;;;21.13;13.90;;;12.60;99.90;;;;;;4396066;28;658610;-70
2021/09/18 00:18:37;;;;;;;22.23;13.35;;;12.60;99.90;;;;;;4395847;28;658683;-70
2021/09/18 00:21:25;;;;;;;20.58;14.25;;;12.60;99.90;;;;;;4416278;28;657909;-70
2021/09/18 00:24:12;;;;;;;20.47;14.37;;;12.60;99.90;;;;;;4394470;28;658516;-70
2021/09/18 00:27:00;;;;;;;22.77;14.67;;;12.60;99.90;;;;;;4417689;28;659952;-70
2021/09/18 00:29:48;;;;;;;22.20;14.27;;;12.60;99.90;;;;;;4395674;28;659362;-70
2021/09/18 00:32:37;;;;;;;21.75;14.32;;;12.60;99.90;;;;;;4411029;28;658483;-70
2021/09/18 00:35:25;;;;;;;22.27;14.63;;;12.50;99.90;;;;;;4390659;28;659526;-70
2021/09/18 00:38:13;;;;;;;25.57;14.23;;;12.50;99.90;;;;;;4395635;28;658553;-70
2021/09/18 00:41:01;;;;;;;26.27;14.90;;;12.50;99.90;;;;;;4414248;28;658571;-70
2021/09/18 00:43:52;;;;;;;21.63;14.63;;;12.50;99.90;;;;;;4386667;28;660085;-70
2021/09/18 00:46:40;;;;;;;23.07;15.13;;;12.50;99.90;;;;;;4381260;28;659538;-70
2021/09/18 00:49:29;;;;;;;21.90;14.90;;;12.50;99.90;;;;;;4395643;28;658542;-70
2021/09/18 00:52:19;;;;;;;27.80;15.30;;;12.50;99.90;;;;;;4405847;28;658615;-70
2021/09/18 00:55:08;;;;;;;23.10;15.80;;;12.40;99.90;;;;;;4410055;28;659203;-70
2021/09/18 00:57:56;;;;;;;23.90;14.90;;;12.50;99.90;;;;;;4407277;28;658846;-70
2021/09/18 01:00:43;;;;;;;23.93;15.43;;;12.40;99.90;;;;;;4395004;28;658268;-70
2021/09/18 01:03:32;;;;;;;21.07;14.73;;;12.40;99.90;;;;;;4413402;28;659277;-70
2021/09/18 01:06:21;;;;;;;22.17;14.57;;;12.50;99.90;;;;;;4389690;28;659616;-70
2021/09/18 01:09:09;;;;;;;22.63;14.33;;;12.50;99.90;;;;;;4391060;28;659628;-70
2021/09/18 01:11:56;;;;;;;22.40;13.50;;;12.50;99.90;;;;;;4429467;28;658494;-70
2021/09/18 01:14:45;;;;;;;20.80;13.93;;;12.50;99.90;;;;;;4409343;28;659415;-70
2021/09/18 01:17:32;;;;;;;17.77;12.07;;;12.50;99.90;;;;;;4413188;28;658734;-70
2021/09/18 01:20:20;;;;;;;14.27;9.63;;;12.50;99.90;;;;;;4431901;28;659437;-70
2021/09/18 01:23:10;;;;;;;11.67;7.70;;;12.40;99.90;;;;;;4414307;28;657584;-70
2021/09/18 01:25:59;;;;;;;8.60;6.20;;;12.40;99.90;;;;;;4414301;28;657475;-70
2021/09/18 01:28:48;;;;;;;7.40;5.10;;;12.30;99.90;;;;;;4430496;28;656708;-70
2021/09/18 01:31:38;;;;;;;4.87;3.77;;;12.30;99.90;;;;;;4433918;28;657254;-70
2021/09/18 01:34:26;;;;;;;4.53;3.17;;;12.20;99.90;;;;;;4411454;28;657437;-70
2021/09/18 01:37:14;;;;;;;3.47;2.97;;;12.30;99.90;;;;;;4414672;28;657292;-70
2021/09/18 01:40:01;;;;;;;4.13;2.80;;;12.20;99.90;;;;;;4434088;28;655940;-70
2021/09/18 01:42:51;;;;;;;4.90;2.80;;;12.20;99.90;;;;;;4415283;28;657541;-70
2021/09/18 01:45:39;;;;;;;2.67;2.30;;;12.10;99.90;;;;;;4398491;28;657431;-70
2021/09/18 01:48:27;;;;;;;5.17;1.97;;;12.10;99.90;;;;;;4415294;28;657063;-70
2021/09/18 01:51:15;;;;;;;3.10;1.97;;;12.10;99.90;;;;;;4434467;28;657061;-70
2021/09/18 01:54:03;;;;;;;3.23;1.70;;;12.00;99.90;;;;;;4415062;28;656709;-70
2021/09/18 01:56:51;;;;;;;5.23;1.57;;;12.00;99.90;;;;;;4434085;28;656588;-70
2021/09/18 01:59:43;;;;;;;2.70;1.63;;;12.00;99.90;;;;;;4414775;28;656748;-69
2021/09/18 02:02:31;;;;;;;2.73;1.20;;;12.00;99.90;;;;;;4403856;28;656521;-70
2021/09/18 02:05:19;;;;;;;1.90;1.40;;;12.00;99.90;;;;;;4415284;28;656767;-70
2021/09/18 02:08:07;;;;;;;3.67;1.63;;;12.00;99.90;;;;;;4414966;28;656616;-70
2021/09/18 02:10:56;;;;;;;3.10;1.70;;;12.00;99.90;;;;;;4435988;28;657170;-70
2021/09/18 02:13:44;;;;;;;1.87;1.40;;;12.00;99.90;;;;;;4414799;28;656798;-70
2021/09/18 02:16:34;;;;;;;2.63;1.87;;;11.90;99.90;;;;;;4413242;28;656511;-70
2021/09/18 02:19:22;;;;;;;4.80;2.03;;;11.90;99.90;;;;;;4415020;28;656531;-70
2021/09/18 02:22:10;;;;;;;3.47;2.37;;;12.00;99.90;;;;;;4433543;28;657488;-70
2021/09/18 02:24:58;;;;;;;2.97;2.67;;;11.90;99.90;;;;;;4414934;28;656689;-69
2021/09/18 02:27:46;;;;;;;3.40;2.70;;;11.90;99.90;;;;;;4437474;28;656386;-70
2021/09/18 02:30:35;;;;;;;2.80;2.50;;;11.90;99.90;;;;;;4414767;28;658208;-69
2021/09/18 02:33:24;;;;;;;4.80;3.07;;;11.90;99.90;;;;;;4414620;28;657041;-70
2021/09/18 02:36:12;;;;;;;3.95;2.95;;;11.80;99.90;;;;;;4414566;28;656633;-70
2021/09/18 02:39:00;;;;;;;5.07;2.97;;;11.80;99.90;;;;;;4433407;28;657440;-70
2021/09/18 02:41:48;;;;;;;4.03;3.47;;;11.80;99.90;;;;;;4414617;28;656405;-69
2021/09/18 02:44:36;;;;;;;6.43;3.20;;;11.80;99.90;;;;;;4433102;28;656802;-70
2021/09/18 02:47:24;;;;;;;5.73;3.73;;;11.80;99.90;;;;;;4413916;28;657341;-70
2021/09/18 02:50:14;;;;;;;4.73;3.90;;;11.80;99.90;;;;;;4432326;28;656584;-70
2021/09/18 02:53:02;;;;;;;5.47;3.93;;;11.80;99.90;;;;;;4414607;28;656687;-70
2021/09/18 02:55:50;;;;;;;7.03;4.60;;;11.80;99.90;;;;;;4437347;28;657940;-70
2021/09/18 02:58:37;;;;;;;4.97;4.20;;;11.80;99.90;;;;;;4414366;28;656382;-70
2021/09/18 03:01:25;;;;;;;6.13;4.27;;;11.70;99.90;;;;;;4432680;28;658123;-70
2021/09/18 03:04:13;;;;;;;5.93;4.70;;;11.70;99.90;;;;;;4413752;28;656564;-70
2021/09/18 03:07:02;;;;;;;5.67;4.80;;;11.70;99.90;;;;;;4432922;28;656688;-70
2021/09/18 03:09:50;;;;;;;5.57;4.57;;;11.70;99.90;;;;;;4405479;28;658104;-70
2021/09/18 03:12:38;;;;;;;7.80;5.20;;;11.70;99.90;;;;;;4396895;28;656568;-70
2021/09/18 03:15:26;;;;;;;6.80;5.03;;;11.60;99.90;;;;;;4415770;28;656849;-70
2021/09/18 03:18:14;;;;;;;7.33;5.60;;;11.60;99.90;;;;;;4392910;28;658095;-70
2021/09/18 03:21:02;;;;;;;6.97;5.87;;;11.60;99.90;;;;;;4407845;28;656549;-70
2021/09/18 03:23:51;;;;;;;10.87;6.90;;;11.70;99.90;;;;;;4419063;28;656932;-70
2021/09/18 03:26:40;;;;;;;18.97;7.03;;;11.70;99.90;;;;;;4391486;28;658398;-70
2021/09/18 03:29:28;;;;;;;15.17;8.67;;;11.60;99.90;;;;;;4394041;28;657502;-69
2021/09/18 03:32:16;;;;;;;11.37;8.43;;;11.70;99.90;;;;;;4414197;28;658065;-70
2021/09/18 03:35:04;;;;;;;13.20;8.70;;;11.70;99.90;;;;;;4395298;28;657566;-70
2021/09/18 03:37:52;;;;;;;13.97;8.70;;;11.70;99.90;;;;;;4406269;28;657182;-70
2021/09/18 03:40:41;;;;;;;9.93;8.27;;;11.60;99.90;;;;;;4414107;28;658671;-70
2021/09/18 03:43:29;;;;;;;16.47;7.33;;;11.60;99.90;;;;;;4392578;28;657973;-70
2021/09/18 03:46:17;;;;;;;9.47;7.43;;;11.60;99.90;;;;;;4386889;28;657753;-70
2021/09/18 03:49:05;;;;;;;12.10;7.20;;;11.70;99.90;;;;;;4419125;28;657131;-70
2021/09/18 03:51:52;;;;;;;11.13;6.70;;;11.60;99.90;;;;;;4395331;28;657765;-70
2021/09/18 03:54:40;;;;;;;10.70;6.93;;;11.70;99.90;;;;;;4413654;28;658874;-70
2021/09/18 03:57:29;;;;;;;11.77;6.83;;;11.70;99.90;;;;;;4395013;28;657579;-70
2021/09/18 04:00:17;;;;;;;8.97;6.77;;;11.70;99.90;;;;;;4398437;28;657614;-70
2021/09/18 04:03:05;;;;;;;12.90;7.37;;;11.70;99.90;;;;;;4418106;28;657483;-70
2021/09/18 04:05:53;;;;;;;14.77;8.67;;;11.70;99.90;;;;;;4393477;28;658385;-70
2021/09/18 04:08:41;;;;;;;10.77;8.20;;;11.70;99.90;;;;;;4415127;28;657858;-70
2021/09/18 04:11:29;;;;;;;11.17;7.70;;;11.60;99.90;;;;;;4405746;28;659148;-70
2021/09/18 04:14:19;;;;;;;14.53;8.60;;;11.60;99.90;;;;;;4434447;28;657478;-69
2021/09/18 04:17:07;;;;;;;13.75;8.38;;;11.60;99.90;;;;;;4418555;28;657312;-69
2021/09/18 04:19:55;;;;;;;10.97;8.40;;;11.60;99.90;;;;;;4438274;28;658125;-69
2021/09/18 04:22:43;;;;;;;11.33;8.50;;;11.60;99.90;;;;;;4415250;28;657772;-70
2021/09/18 04:25:30;;;;;;;14.43;8.47;;;11.60;99.90;;;;;;4434514;28;658921;-69
2021/09/18 04:28:18;;;;;;;15.88;8.13;;;11.70;99.90;;;;;;4415495;28;657801;-69
2021/09/18 04:31:08;;;;;;;12.17;8.40;;;11.60;99.90;;;;;;4434009;28;658074;-69
2021/09/18 04:33:55;;;;;;;13.87;8.43;;;11.60;99.90;;;;;;4411168;28;658688;-69
2021/09/18 04:36:43;;;;;;;14.53;7.87;;;11.70;99.90;;;;;;4413217;28;658119;-69
2021/09/18 04:39:31;;;;;;;22.77;8.70;;;11.60;99.90;;;;;;4433180;28;657703;-69
2021/09/18 04:42:19;;;;;;;12.17;8.63;;;11.60;99.90;;;;;;4410861;28;658280;-69
2021/09/18 04:45:08;;;;;;;13.43;8.20;;;11.60;99.90;;;;;;4423700;28;657270;-69
2021/09/18 04:47:57;;;;;;;13.37;8.57;;;11.60;99.90;;;;;;4410091;28;658373;-69
2021/09/18 04:50:45;;;;;;;13.73;7.55;;;11.70;99.90;;;;;;4407907;28;658735;-69
2021/09/18 04:53:33;;;;;;;18.47;8.90;;;11.70;99.90;;;;;;4414725;28;657985;-69
2021/09/18 04:56:20;;;;;;;16.40;7.93;;;11.70;99.90;;;;;;4433730;28;658681;-69
2021/09/18 04:59:08;;;;;;;18.90;8.97;;;11.70;99.90;;;;;;4415135;28;658082;-69
2021/09/18 05:01:56;;;;;;;14.93;8.73;;;11.60;99.90;;;;;;4437641;28;657858;-69
2021/09/18 05:04:45;;;;;;;15.13;8.33;;;11.60;99.90;;;;;;4410792;28;657402;-69
2021/09/18 05:07:32;;;;;;;15.43;9.17;;;11.60;99.90;;;;;;4407143;28;657359;-69
2021/09/18 05:10:20;;;;;;;18.10;9.93;;;11.60;99.90;;;;;;4432533;28;658813;-69
2021/09/18 05:13:08;;;;;;;16.30;10.67;;;11.70;99.90;;;;;;4414642;28;657748;-69
2021/09/18 05:15:56;;;;;;;15.10;10.17;;;11.70;99.90;;;;;;4432196;28;659055;-69
2021/09/18 05:18:44;;;;;;;16.10;9.40;;;11.60;99.90;;;;;;4409240;28;660150;-69
2021/09/18 05:21:33;;;;;;;13.70;9.43;;;11.70;99.90;;;;;;4433320;28;657469;-69
2021/09/18 05:24:21;;;;;;;19.33;10.43;;;11.70;99.90;;;;;;4410038;28;657939;-69
2021/09/18 05:27:09;;;;;;;17.60;10.40;;;11.70;99.90;;;;;;4409054;28;660095;-69
2021/09/18 05:29:57;;;;;;;18.87;12.07;;;11.80;99.90;;;;;;4428682;28;658416;-69
2021/09/18 05:32:45;;;;;;;24.17;10.33;;;11.80;99.90;;;;;;4435293;28;659728;-69
2021/09/18 05:35:33;;;;;;;18.75;10.65;;;11.90;99.90;;;;;;4412941;28;659188;-69
2021/09/18 05:38:22;;;;;;;15.37;10.37;;;11.80;99.90;;;;;;4431880;28;658751;-69
2021/09/18 05:41:10;;;;;;;14.73;11.20;;;11.80;99.90;;;;;;4408721;28;659758;-69
2021/09/18 05:43:58;;;;;;;17.87;11.23;;;11.80;99.90;;;;;;4412711;28;658962;-69
2021/09/18 05:46:46;;;;;;;16.53;11.10;;;11.80;99.90;;;;;;4415140;28;658550;-69
2021/09/18 05:49:33;;;;;;;17.80;11.53;;;11.80;99.90;;;;;;4412978;28;658307;-69
2021/09/18 05:52:21;;;;;;;16.03;10.70;;;11.80;99.90;;;;;;4431787;28;658329;-69
2021/09/18 05:55:11;;;;;;;17.53;11.27;;;11.70;99.90;;;;;;4408727;28;660127;-69
2021/09/18 05:57:58;;;;;;;20.57;11.23;;;11.80;99.90;;;;;;4412864;28;659370;-69
2021/09/18 06:00:46;;;;;;;20.20;9.47;;;11.80;99.90;;;;;;4426139;28;659019;-69
2021/09/18 06:03:35;;;;;;;12.65;8.90;;;11.80;99.90;;;;;;4413892;28;657952;-69
2021/09/18 06:06:23;;;;;;;11.73;8.00;;;11.80;99.90;;;;;;4413993;28;657579;-69
2021/09/18 06:09:11;;;;;;;13.95;8.98;;;11.80;99.90;;;;;;4429289;28;657532;-69
2021/09/18 06:12:00;;;;;;;13.20;8.80;;;11.70;99.90;;;;;;4409469;28;658120;-69
2021/09/18 06:14:48;;;;;;;13.00;9.10;;;11.70;99.90;;;;;;4413632;28;657907;-69
2021/09/18 06:17:36;;;;;;;11.63;8.43;;;11.60;99.90;;;;;;4431853;28;658395;-69
2021/09/18 06:20:23;;;;;;;10.43;7.53;;;11.60;99.90;;;;;;4413408;28;657543;-69
2021/09/18 06:23:11;;;;;;;15.93;9.20;;;11.60;99.90;;;;;;4432506;28;658057;-69
2021/09/18 06:25:59;;;;;;;11.10;7.70;;;11.60;99.90;;;;;;4413633;28;658980;-69
2021/09/18 06:28:49;;;;;;;18.57;8.80;;;11.60;99.90;;;;;;4420822;28;657884;-69
2021/09/18 06:31:43;;;;;;;9.53;7.47;;;11.60;99.90;;;;;;4424320;28;658240;-69
2021/09/18 06:34:32;;;;;;;10.53;8.17;;;11.50;99.90;;;;;;4410639;28;656765;-69
2021/09/18 06:37:26;;;;;;;13.67;7.73;;;11.50;99.90;;;;;;4408955;28;658958;-70
2021/09/18 06:40:19;;;;;;;11.70;7.97;;;11.60;99.90;;;;;;4386230;28;658762;-69
2021/09/18 06:43:06;;;;;;;9.83;7.97;;;11.60;99.90;;;;;;4408961;28;657826;-69
2021/09/18 06:45:56;;;;;;;15.10;8.50;;;11.60;99.90;;;;;;4409981;28;657730;-69
2021/09/18 06:48:43;;;;;;;16.17;9.57;;;11.60;99.90;;;;;;4413573;28;657831;-69
2021/09/18 06:51:32;;;;;;;17.27;10.87;;;11.60;99.90;;;;;;4425232;28;658156;-69
2021/09/18 06:54:19;;;;;;;17.83;11.17;;;11.60;99.90;;;;;;4411625;28;659071;-69
2021/09/18 06:57:11;;;;;;;18.77;12.43;;;11.60;99.90;;;;;;4411777;28;658652;-69
2021/09/18 06:59:59;;;;;;;16.60;11.63;;;11.60;99.90;;;;;;4408111;28;659455;-69
2021/09/18 07:02:48;;;;;;;17.17;11.73;;;11.60;99.90;;;;;;4412503;28;658420;-69
2021/09/18 07:05:36;;;;;;;16.57;10.97;;;11.60;99.90;;;;;;4431147;28;658710;-69
2021/09/18 07:08:24;;;;;;;16.83;11.87;;;11.60;99.90;;;;;;4410909;28;658924;-69
2021/09/18 07:11:12;;;;;;;17.57;12.30;;;11.60;99.90;;;;;;4411750;28;658840;-69
2021/09/18 07:14:00;;;;;;;20.37;11.57;;;11.60;99.90;;;;;;4434941;28;659214;-69
2021/09/18 07:16:48;;;;;;;16.67;11.67;;;11.70;99.90;;;;;;4412058;28;658920;-69
2021/09/18 07:19:37;;;;;;;15.97;11.30;;;11.70;99.90;;;;;;4430687;28;658519;-69
2021/09/18 07:22:25;;;;;;;15.73;11.30;;;11.70;99.90;;;;;;4407876;28;659657;-69
2021/09/18 07:25:13;;;;;;;18.80;11.37;;;11.70;99.90;;;;;;4411858;28;658638;-69
2021/09/18 07:28:01;;;;;;;18.27;11.77;;;11.70;99.90;;;;;;4430448;28;658556;-69
2021/09/18 07:30:49;;;;;;;15.57;11.20;;;11.60;99.90;;;;;;4407535;28;659727;-69
2021/09/18 07:33:37;;;;;;;13.47;9.97;;;11.60;99.90;;;;;;4415480;28;658668;-69
2021/09/18 07:36:26;;;;;;;14.60;11.13;;;11.60;99.90;;;;;;4436383;28;659006;-69
2021/09/18 07:39:14;;;;;;;17.67;11.07;;;11.60;99.90;;;;;;4415066;28;660508;-69
2021/09/18 07:42:02;;;;;;;17.30;12.63;;;11.50;99.90;;;;;;4415039;28;658641;-69
2021/09/18 07:44:50;;;;;;;16.55;11.88;;;11.60;99.90;;;;;;4433691;28;659711;-69
2021/09/18 07:47:38;;;;;;;17.43;12.07;;;11.70;99.90;;;;;;4408528;28;659588;-69
2021/09/18 07:50:26;;;;;;;16.80;11.93;;;11.80;99.90;;;;;;4433739;28;659713;-69
2021/09/18 07:53:15;;;;;;;18.00;11.97;;;11.90;99.90;;;;;;4414685;28;658932;-69
2021/09/18 07:56:03;;;;;;;15.50;11.77;;;12.00;99.90;;;;;;4414474;28;659169;-69
2021/09/18 07:58:54;;;;;;;15.20;8.77;;;12.00;99.90;;;;;;4420812;28;659437;-69
2021/09/18 08:01:42;;;;;;;16.63;10.90;;;12.00;99.90;;;;;;4411249;28;658393;-69
2021/09/18 08:04:29;;;;;;;14.27;10.40;;;11.90;99.90;;;;;;4409933;28;659869;-69
2021/09/18 08:07:20;;;;;;;18.07;10.83;;;11.90;99.90;;;;;;4414517;28;658743;-69
2021/09/18 08:10:13;;;;;;;14.47;9.60;;;12.00;99.90;;;;;;4410219;28;658547;-69
2021/09/18 08:13:01;;;;;;;13.30;9.77;;;12.10;99.90;;;;;;4411395;28;657960;-69
2021/09/18 08:15:49;;;;;;;13.33;9.33;;;12.10;99.90;;;;;;4406643;28;659108;-69
2021/09/18 08:18:37;;;;;;;14.00;9.30;;;12.10;99.90;;;;;;4429922;28;657360;-69
2021/09/18 08:21:25;;;;;;;13.10;9.67;;;12.10;99.90;;;;;;4436738;28;657977;-69
2021/09/18 08:24:13;;;;;;;14.17;9.90;;;12.10;99.90;;;;;;4415644;28;658245;-69
2021/09/18 08:27:02;;;;;;;11.73;9.07;;;12.20;99.90;;;;;;4433874;28;658812;-69
2021/09/18 08:29:50;;;;;;;10.67;8.60;;;12.20;99.90;;;;;;4411341;28;657862;-69
2021/09/18 08:32:38;;;;;;;11.37;8.63;;;12.10;99.90;;;;;;4415168;28;657842;-69
2021/09/18 08:35:26;;;;;;;10.70;8.27;;;12.20;99.90;;;;;;4434124;28;657894;-69
2021/09/18 08:38:14;;;;;;;11.90;8.27;;;12.20;99.90;;;;;;4411157;28;657886;-69
2021/09/18 08:41:02;;;;;;;10.67;8.20;;;12.30;99.90;;;;;;4430302;28;657708;-69
2021/09/18 08:43:51;;;;;;;11.30;7.87;;;12.40;99.90;;;;;;4433926;28;658471;-69
2021/09/18 08:46:39;;;;;;;12.20;7.40;;;12.50;99.90;;;;;;4399042;28;657954;-69
2021/09/18 08:49:28;;;;;;;9.97;7.23;;;12.60;99.90;;;;;;4415782;28;657368;-69
2021/09/18 08:52:15;;;;;;;9.10;6.83;;;12.70;99.90;;;;;;4435464;28;656283;-69
2021/09/18 08:55:04;;;;;;;8.70;6.20;;;12.80;99.90;;;;;;4415293;28;656918;-69
2021/09/18 08:57:52;;;;;;;9.83;7.00;;;12.80;99.90;;;;;;4416181;28;656760;-69
2021/09/18 09:00:49;;;;;;;12.47;7.57;;;12.80;99.90;;;;;;4434995;28;657246;-69
2021/09/18 09:03:38;;;;;;;7.63;6.30;;;12.80;99.90;;;;;;4407624;28;657666;-69
2021/09/18 09:06:26;;;;;;;9.50;6.63;;;13.00;99.90;;;;;;4438704;28;656230;-69
2021/09/18 09:09:14;;;;;;;8.10;5.67;;;13.10;99.90;;;;;;4411915;28;657262;-69
2021/09/18 09:12:02;;;;;;;10.07;6.43;;;13.20;99.90;;;;;;4428635;28;656718;-69
2021/09/18 09:14:50;;;;;;;10.10;6.25;;;13.20;99.90;;;;;;4432932;28;658708;-69
2021/09/18 09:17:41;;;;;;;10.57;5.80;;;13.20;99.90;;;;;;4414677;28;657497;-69
2021/09/18 09:20:28;;;;;;;7.17;5.20;;;13.40;99.90;;;;;;4414384;28;658010;-69
2021/09/18 09:23:17;;;;;;;7.23;5.27;;;13.50;99.90;;;;;;4434177;28;656991;-69
2021/09/18 09:26:05;;;;;;;6.67;5.07;;;13.60;99.90;;;;;;4411598;28;656817;-69
2021/09/18 09:28:53;;;;;;;5.67;5.03;;;13.40;99.60;;;;;;4415615;28;656783;-69
2021/09/18 09:31:41;;;;;;;5.97;4.43;;;13.40;99.90;;;;;;4434607;28;657093;-69
2021/09/18 09:34:30;;;;;;;6.60;4.17;;;13.40;99.90;;;;;;4415851;28;657620;-69
2021/09/18 09:37:18;;;;;;;5.67;4.17;;;13.40;99.90;;;;;;4414667;28;657287;-69
2021/09/18 09:40:08;;;;;;;5.87;3.20;;;13.40;99.90;;;;;;4434518;28;656987;-69
2021/09/18 09:42:56;;;;;;;3.03;2.73;;;13.50;99.90;;;;;;4410091;28;656794;-69
2021/09/18 09:45:44;;;;;;;3.60;3.30;;;13.50;99.90;;;;;;4409453;28;657031;-69
2021/09/18 09:48:32;;;;;;;4.07;3.10;;;13.60;99.30;;;;;;4432778;28;656400;-69
2021/09/18 09:51:27;;;;;;;6.20;3.50;;;13.50;99.90;;;;;;4436480;28;656755;-69
2021/09/18 09:54:19;;;;;;;5.87;3.90;;;13.50;99.60;;;;;;4410120;28;657297;-69
2021/09/18 09:57:09;;;;;;;3.53;3.00;;;13.60;93.10;;;;;;4392110;28;656758;-69
2021/09/18 10:00:00;;;;;;;7.33;4.90;;;13.60;99.90;;;;;;4425244;28;656240;-69
2021/09/18 10:02:48;;;;;;;4.77;4.00;;;13.60;91.40;;;;;;4415033;28;656585;-69
2021/09/18 10:05:36;;;;;;;6.17;3.37;;;13.70;98.60;;;;;;4433490;28;657048;-69
2021/09/18 10:08:26;;;;;;;5.13;3.73;;;14.00;79.30;;;;;;4414679;28;656815;-70
2021/09/18 10:11:13;;;;;;;4.73;3.53;;;14.10;75.20;;;;;;4414841;28;657025;-69
2021/09/18 10:14:02;;;;;;;5.00;3.40;;;14.30;77.70;;;;;;4433915;28;656540;-69
2021/09/18 10:16:51;;;;;;;4.67;3.40;;;14.40;59.10;;;;;;4410926;28;657138;-69
2021/09/18 10:20:05;;;;;;;6.90;2.87;;;14.50;61.20;;;;;;4414915;28;656767;-69
2021/09/18 10:25:59;;;;;;;4.43;2.70;;;14.70;68.20;;;;;;4391640;28;657192;-69
2021/09/18 10:28:48;;;;;;;3.37;2.33;;;15.00;55.70;;;;;;4396731;28;657317;-69
2021/09/18 10:31:36;;;;;;;4.17;2.80;;;15.20;39.80;;;;;;4426291;28;656943;-69
2021/09/18 10:34:24;;;;;;;3.43;2.63;;;15.30;29.20;;;;;;4414746;28;656767;-69
2021/09/18 10:37:33;;;;;;;7.10;2.40;;;15.00;16.10;;;;;;4431843;28;656579;-69
2021/09/18 10:40:21;;;;;;;3.20;2.30;;;14.80;32.70;;;;;;4410490;28;656369;-69
2021/09/18 10:43:11;;;;;;;3.20;2.07;;;14.70;42.70;;;;;;4410759;28;657652;-69
2021/09/18 10:45:59;;;;;;;4.73;2.50;;;14.50;53.20;;;;;;4410515;28;656918;-69
2021/09/18 10:48:51;;;;;;;4.70;2.00;;;14.20;81.30;;;;;;4425549;28;656918;-69
2021/09/18 10:51:40;;;;;;;8.07;2.30;;;14.10;68.10;;;;;;4410595;28;657339;-69
2021/09/18 10:54:28;;;;;;;4.27;2.27;;;14.10;82.80;;;;;;4414564;28;656925;-69
2021/09/18 10:57:16;;;;;;;3.50;2.30;;;14.00;83.20;;;;;;4433269;28;656638;-69
2021/09/18 11:00:06;;;;;;;3.40;2.30;;;13.90;94.50;;;;;;4414555;28;657299;-69
2021/09/18 11:02:54;;;;;;;2.93;1.90;;;13.90;98.80;;;;;;4414313;28;657303;-69
2021/09/18 11:05:46;;;;;;;4.67;2.10;;;13.90;99.90;;;;;;4419943;28;657014;-69
2021/09/18 11:08:36;;;;;;;3.73;2.37;;;13.70;99.90;;;;;;4415249;28;657809;-70
2021/09/18 11:11:28;;;;;;;4.37;2.10;;;13.60;99.90;;;;;;4418036;28;657738;-69
2021/09/18 11:14:15;;;;;;;3.47;2.60;;;13.50;99.90;;;;;;4413287;28;657038;-69
2021/09/18 11:17:17;;;;;;;6.75;2.35;;;13.60;99.90;;;;;;4417921;28;656733;-70
2021/09/18 11:20:12;;;;;;;5.23;2.10;;;13.60;99.90;;;;;;4390091;28;657148;-69
2021/09/18 11:23:00;;;;;;;3.28;2.30;;;13.70;99.90;;;;;;4418284;28;656974;-69
2021/09/18 11:25:47;;;;;;;3.97;2.40;;;13.80;99.90;;;;;;4416368;28;656311;-69
2021/09/18 11:28:35;;;;;;;4.23;2.00;;;13.90;91.30;;;;;;4436608;28;657003;-69
2021/09/18 11:31:23;;;;;;;4.13;2.20;;;13.90;89.60;;;;;;4417015;28;657314;-69
2021/09/18 11:34:12;;;;;;;3.03;2.10;;;14.00;73.90;;;;;;4436186;28;657309;-69
2021/09/18 11:37:01;;;;;;;3.33;2.10;;;14.10;91.10;;;;;;4413418;28;657229;-69
2021/09/18 11:39:52;;;;;;;3.27;1.70;;;14.40;53.80;;;;;;4413427;28;657161;-69
2021/09/18 11:42:40;;;;;;;3.13;1.90;;;14.40;43.30;;;;;;4411867;28;657488;-69
2021/09/18 11:45:28;;;;;;;2.33;1.97;;;14.40;30.30;;;;;;4416496;28;656458;-69
2021/09/18 11:48:21;;;;;;;4.47;1.70;;;14.30;40.20;;;;;;4436153;28;657106;-69
2021/09/18 11:51:10;;;;;;;2.90;1.60;;;14.40;39.50;;;;;;4415859;28;657178;-70
2021/09/18 11:54:01;;;;;;;4.33;2.20;;;14.30;39.40;;;;;;4417320;28;656655;-69
2021/09/18 11:56:50;;;;;;;5.60;1.83;;;14.40;46.60;;;;;;4416997;28;656469;-69
2021/09/18 11:59:37;;;;;;;3.50;2.17;;;14.10;55.50;;;;;;4416854;28;656632;-70
2021/09/18 12:02:31;;;;;;;2.60;1.90;;;13.90;66.60;;;;;;4437228;28;657249;-69
2021/09/18 12:05:19;;;;;;;4.07;1.80;;;13.80;69.70;;;;;;4417324;28;656490;-69
2021/09/18 12:08:09;;;;;;;4.47;1.87;;;13.80;77.10;;;;;;4428364;28;656975;-69
2021/09/18 12:10:57;;;;;;;2.90;1.70;;;13.70;84.90;;;;;;4435436;28;656771;-69
2021/09/18 12:13:46;;;;;;;3.63;1.87;;;13.80;84.20;;;;;;4413074;28;657153;-69
2021/09/18 12:16:34;;;;;;;4.47;1.70;;;13.90;88.90;;;;;;4412642;28;657721;-69
2021/09/18 12:19:22;;;;;;;4.43;1.80;;;14.00;90.80;;;;;;4421295;28;656646;-69
2021/09/18 12:22:09;;;;;;;4.37;2.00;;;14.00;84.20;;;;;;4435355;28;657159;-69
2021/09/18 12:24:58;;;;;;;7.03;2.27;;;14.10;79.00;;;;;;4416853;28;656520;-69
2021/09/18 12:27:46;;;;;;;4.33;2.10;;;14.30;66.20;;;;;;4435425;28;657039;-69
2021/09/18 12:30:37;;;;;;;2.33;1.80;;;14.20;56.90;;;;;;4412547;28;657351;-69
2021/09/18 12:33:30;;;;;;;2.80;1.97;;;14.30;55.40;;;;;;4412606;28;657696;-69
2021/09/18 12:36:18;;;;;;;7.07;2.20;;;14.30;50.20;;;;;;4392619;28;656540;-69
2021/09/18 12:39:06;;;;;;;4.43;1.90;;;14.40;69.50;;;;;;4435570;28;656598;-69
2021/09/18 12:42:04;;;;;;;5.95;2.28;;;14.50;48.70;;;;;;4416571;28;657140;-69
2021/09/18 12:44:51;;;;;;;6.20;2.33;;;14.50;55.00;;;;;;4412422;28;656377;-69
2021/09/18 12:47:39;;;;;;;5.90;2.10;;;14.40;34.30;;;;;;4412483;28;656859;-69
2021/09/18 12:50:27;;;;;;;9.33;2.40;;;14.20;47.00;;;;;;4430057;28;656841;-69
2021/09/18 12:53:19;;;;;;;4.10;2.37;;;14.00;51.40;;;;;;4435705;28;657231;-69
2021/09/18 12:56:17;;;;;;;3.47;2.30;;;13.90;54.10;;;;;;4412574;28;656647;-69
2021/09/18 12:59:17;;;;;;;3.37;2.07;;;13.90;56.70;;;;;;4412624;28;657339;-69
2021/09/18 13:02:05;;;;;;;4.37;2.13;;;13.80;71.20;;;;;;4412220;28;657298;-69
2021/09/18 13:04:53;;;;;;;4.60;2.20;;;13.80;78.10;;;;;;4416381;28;656547;-69
2021/09/18 13:07:41;;;;;;;4.83;2.47;;;13.70;90.10;;;;;;4433938;28;656581;-69
2021/09/18 13:10:32;;;;;;;5.27;2.50;;;13.80;89.30;;;;;;4404483;28;657693;-69
2021/09/18 13:13:40;;;;;;;5.97;2.40;;;13.80;90.20;;;;;;4412101;28;657547;-69
2021/09/18 13:16:34;;;;;;;6.63;2.53;;;13.90;86.50;;;;;;4392795;28;656664;-70
2021/09/18 13:19:32;;;;;;;5.43;2.40;;;14.10;90.90;;;;;;4392907;28;656885;-69
2021/09/18 13:22:20;;;;;;;5.30;2.47;;;14.20;70.30;;;;;;4411819;28;656935;-69
2021/09/18 13:25:12;;;;;;;4.70;2.20;;;14.30;78.10;;;;;;4415941;28;657276;-69
2021/09/18 13:27:59;;;;;;;5.47;2.60;;;14.40;49.50;;;;;;4410408;28;657559;-69
2021/09/18 13:30:47;;;;;;;7.27;2.13;;;14.60;58.20;;;;;;4415475;28;656512;-69
2021/09/18 13:33:37;;;;;;;3.60;2.03;;;14.60;60.60;;;;;;4434593;28;657339;-69
2021/09/18 13:36:25;;;;;;;4.03;2.40;;;14.60;61.40;;;;;;4410417;28;657198;-69
2021/09/18 13:39:12;;;;;;;4.50;2.33;;;14.60;44.10;;;;;;4415677;28;656513;-70
2021/09/18 13:42:00;;;;;;;5.47;2.30;;;14.70;57.00;;;;;;4437414;28;657086;-69
2021/09/18 13:44:48;;;;;;;4.00;2.40;;;14.90;48.80;;;;;;4415240;28;656562;-69
2021/09/18 13:47:36;;;;;;;3.97;2.20;;;14.90;37.80;;;;;;4434319;28;657670;-69
2021/09/18 13:50:31;;;;;;;4.23;2.50;;;15.00;34.60;;;;;;4415657;28;656478;-69
2021/09/18 13:53:19;;;;;;;6.27;2.10;;;14.80;27.30;;;;;;4388293;28;657455;-69
2021/09/18 13:56:09;;;;;;;4.10;2.40;;;14.70;29.30;;;;;;4433476;28;656184;-69
2021/09/18 13:58:56;;;;;;;4.80;2.30;;;14.70;29.30;;;;;;4434666;28;656762;-69
2021/09/18 14:01:44;;;;;;;4.17;2.10;;;14.80;37.70;;;;;;4411160;28;657860;-69
2021/09/18 14:04:33;;;;;;;4.10;2.50;;;14.80;41.00;;;;;;4430847;28;656451;-69
2021/09/18 14:07:22;;;;;;;4.90;2.23;;;14.80;31.10;;;;;;4433969;28;657798;-69
2021/09/18 14:10:10;;;;;;;4.33;2.60;;;14.80;39.90;;;;;;4414742;28;657144;-69
2021/09/18 14:12:57;;;;;;;5.57;2.40;;;14.80;41.30;;;;;;4415111;28;656418;-69
2021/09/18 14:15:45;;;;;;;4.37;2.47;;;14.80;44.20;;;;;;4433826;28;658121;-69
2021/09/18 14:18:33;;;;;;;6.10;2.60;;;14.80;36.90;;;;;;4414291;28;656569;-69
2021/09/18 14:21:25;;;;;;;4.17;2.77;;;14.90;28.50;;;;;;4433618;28;658153;-69
2021/09/18 14:24:26;;;;;;;4.23;2.80;;;14.90;27.60;;;;;;4387935;28;657410;-69